< < Back
Terminal Aerodrome Forecast


Current Version              Previous Versions:   1  2  3  4  5  6  7  8  9  

Terminal Aerodrome Forecast

655
FTUS42 KGSP 191120
TAFAND
TAF
KAND 191120Z 1912/2012 00000KT P6SM FEW250
     FM191400 06006KT P6SM SCT250
     FM192000 06003KT P6SM FEW070 BKN250
     FM200700 07003KT P6SM -RA BKN060
     FM201100 06003KT P6SM -RA OVC050=

Latest METAR

163
SAUS70 KWBC 201300 RRH
MTRAND
METAR KAND 201256Z AUTO 07006KT 10SM -RA OVC013 06/04 A3019 RMK AO2
SLP225 P0002 T00610044


USA.gov is the U.S. government's official web portal to all federal, state and local government web resources and services.